Historyczne dane pomiarowe

Dodano dane terminowe – wersja testowa.

Dane z okresu 1951-2019

Wersja bazy: 1.34 [2019-03-16, lista zmian], aktualizacja planowana na 2019-04-15

Dane meteo z obszaru Polski uzyskane na podstawie danych udostępnionych przez Instytut Meteorologii i Gospodarki Wodnej – Państwowy Instytut Badawczy.

 

Wybierz Datę:    

       

TemperaturaWilgotnośćWiatrCiśnienieOpadyŚniegCzas trwania zjawisk
 Stacja t tx tn tng RH VA  wxwx mslp ppp RRR   cm mm wxwxwxwxwxwxwx
2015-05-15 9.9 16.7 2.4 1.7 70.6 8.1- 1.0--1014.9 989.6 0.0 0.0 0.0x- 10.5-------
2015-05-16 12.8 20.3 2.9 2.1 60.6 8.2- 1.0--1019.1 993.9 0.0 0.0 0.0x- 13.1-------
2015-05-17 12.7 17.5 9.2 7.9 61.8 8.9- 1.9--1020.0 994.8 0.0 0.0 0.0x- 4.7-------
2015-05-18 12.9 20.8 2.9 1.9 54.3 7.3- 1.4--1016.8 991.7 0.0 0.0 0.0x- 13.7-------
2015-05-19 17.9 27.4 7.3 6.1 62.0 11.7- 1.4--1009.0 984.5 10.1 1.1 9.0x- 11.9-------
2015-05-20 18.5 25.8 13.3 12.2 78.9 16.2- 2.3--1010.3 985.9 13.7 0.6 13.1x- 8.4-------
2015-05-21 11.9 17.6 11.5 11.3 94.5 13.1- 1.4--1019.0 993.8 14.7 1.9 12.8x- 0.0-------
2015-05-22 12.0 14.6 10.0 10.0 84.9 11.8- 1.9--1023.0 997.7 0.0 0.0 0.0x- 0.1-------
2015-05-23 11.7 13.0 10.9 10.8 89.9 12.4- 1.9--1017.7 992.5 6.2 0.4 5.8x- 0.0-------
2015-05-24 11.7 13.0 10.6 10.6 93.3 12.8- 1.4--1017.9 992.7 0.4 0.4 0.0x- 0.0-------
2015-05-25 14.3 16.5 11.9 11.7 89.0 14.4- 1.4--1012.8 988.0 0.3 0.3 0.0x- 0.1-------
2015-05-26 14.5 16.5 13.8 13.5 94.3 15.5- 1.5--1008.4 983.7 30.2 3.4 26.8x- 0.4-------
2015-05-27 9.6 14.0 7.0 7.0 86.3 10.3- 2.1--1014.7 989.4 5.5 5.5 0.0x- 0.0-------
2015-05-28 10.7 14.3 8.2 7.5 70.6 8.9- 1.5--1017.5 992.3 0.0 0.0 0.0x- 3.7-------
2015-05-29 13.7 22.0 2.3 1.9 64.1 9.5- 0.9--1014.6 989.7 0.0 0.0 0.0x- 14.0-------
2015-05-30 16.5 25.6 9.1 7.9 71.3 12.9- 1.4--1013.3 988.6 6.1 4.5 1.6x- 7.7-------
2015-05-31 15.0 19.9 10.1 9.4 69.5 11.4- 1.0--1018.8 993.8 0.0 0.0 0.0x- 11.0-------
2015-06-01 18.6 27.3 7.5 6.9 62.6 12.4- 0.9--1017.7 993.1 0.0 0.0 0.0x- 12.8-------
2015-06-02 20.0 28.0 12.1 11.3 68.6 15.2- 1.0--1018.1 993.6 0.0 0.0 0.0x- 12.7-------
2015-06-03 22.9 29.7 13.6 12.6 62.6 16.2- 1.1--1019.1 994.8 0.6 0.0 0.6x- 14.1-------
2015-06-04 18.5 26.5 17.1 16.8 65.8 14.0- 2.1--1025.61000.8 0.0 0.0 0.0x- 8.0-------
2015-06-05 16.3 23.6 6.7 6.0 57.3 9.6- 1.4--1027.01001.9 0.0 0.0 0.0x- 14.3-------
2015-06-06 19.9 29.0 8.7 6.7 55.8 11.9- 1.4--1023.8 999.1 0.0 0.0 0.0x- 14.4-------
2015-06-07 23.1 31.0 13.1 11.7 61.5 16.1- 1.3--1023.2 998.9 0.0 0.0 0.0x- 14.1-------
2015-06-08 18.4 26.3 15.7 15.1 64.8 13.5- 2.3--1022.7 998.0 0.0 0.0 0.0x- 10.4-------
2015-06-09 18.5 24.2 14.7 14.4 60.5 12.7- 2.6--1020.9 996.2 0.0 0.0 0.0x- 12.6-------
2015-06-10 18.1 24.1 12.4 11.9 63.6 12.8- 1.6--1023.2 998.4 0.0 0.0 0.0x- 9.4-------
2015-06-11 19.1 24.4 12.5 11.3 61.8 13.0- 1.1--1020.8 996.1 0.0 0.0 0.0x- 10.4-------
2015-06-12 22.9 29.7 13.9 11.7 54.8 14.8- 1.9--1016.0 991.8 0.0 0.0 0.0x- 14.0-------
2015-06-13 25.9 33.7 15.1 13.4 50.0 15.2- 1.5--1010.0 986.2 0.0 0.0 0.0x- 13.8-------
118.3 ms

 

Źródłem pochodzenia danych jest Instytut Meteorologii i Gospodarki Wodnej – Państwowy Instytut Badawczy. Dane Instytutu Meteorologii i Gospodarki Wodnej – Państwowego Instytutu Badawczego zostały przetworzone.

Dane źródłowe można odnaleźć na stronie https://dane.imgw.pl